Oak Hill, West Virginia
Current Conditions -  °F | °C
As of 12:51 AM on Monday 20 Oct 2014 (Local Time) from KBKW Reporting Station
Clear Clear  
Wind Chill: 37°   Ceiling: Unl
Heat Index: 42°   Visibility: 10mi
Dew Point: 34°   Wind: 8mph
Humidity: 73%   Direction: 150°SSE
Pressure: 30.09"   Gusts: NA
Location:  37.97°N, 81.15°W
Report Text: KBKW 200451Z AUTO 15007KT 10SM CLR 06/01 A3009 RMK AO2 SLP194 T00560011 401170033 TSNO
Loading
Personal Weather Stations






























Interactive Weather Map
Tropical Storm Tracking
New forecast layout! Learn more

10-Day Weather Forecast

Advertisements
Track Severe Weather on mobile